CST,Max TemperatureF,Mean TemperatureF,Min TemperatureF,Max Dew PointF,MeanDew PointF,Min DewpointF,Max Humidity, Mean Humidity, Min Humidity, Max Sea Level PressureIn, Mean Sea Level PressureIn, Min Sea Level PressureIn, Max VisibilityMiles, Mean VisibilityMiles, Min VisibilityMiles, Max Wind SpeedMPH, Mean Wind SpeedMPH, Max Gust SpeedMPH,PrecipitationIn, CloudCover, Events, WindDirDegrees
2013-2-1,64,50,35,38,33,27,73,53,31,30.39,30.29,30.20,10,10,10,15,9,18,0.00,0,,115
2013-2-2,70,58,45,49,41,34,86,58,40,30.33,30.25,30.19,10,10,10,13,8,20,0.00,0,,288
2013-2-3,70,54,39,38,32,26,79,46,19,30.34,30.22,30.02,10,10,10,10,5,,0.00,0,,160
2013-2-4,70,60,51,58,51,32,100,75,37,30.01,29.91,29.82,10,8,1,16,9,23,0.05,5,Rain,157
2013-2-5,73,66,59,63,59,57,100,84,59,30.01,29.95,29.88,10,5,0,9,6,,0.00,5,Fog,108
2013-2-6,66,62,57,63,60,56,96,89,77,30.05,29.97,29.90,10,8,2,15,9,,0.10,7,Rain,131
2013-2-7,73,64,55,59,56,48,100,85,52,30.08,29.93,29.83,10,6,1,17,7,26,0.00,5,,186
2013-2-8,64,54,45,47,41,37,83,61,39,30.25,30.17,30.09,10,10,9,16,10,24,0.00,1,,27
2013-2-9,62,54,46,60,50,43,100,91,80,30.15,29.98,29.80,10,5,2,18,10,24,0.04,6,Rain,121
2013-2-10,71,63,54,64,47,30,93,62,27,30.03,29.84,29.66,10,9,4,34,16,47,0.12,3,Rain-Thunderstorm,243
2013-2-11,55,52,46,46,43,35,93,76,47,30.15,30.08,30.00,10,9,4,12,6,,0.15,7,Rain,46
2013-2-12,55,50,44,49,46,41,100,88,76,30.02,29.92,29.85,10,7,2,18,8,32,0.22,7,Rain-Thunderstorm,4
2013-2-13,54,46,37,38,36,34,86,73,53,30.19,30.11,30.04,10,10,10,23,12,31,0.00,4,,330
2013-2-14,66,51,36,40,35,30,93,60,25,30.14,30.08,30.03,10,9,5,10,7,,0.00,0,,186
2013-2-15,52,46,37,38,32,23,73,56,39,30.40,30.28,30.11,10,10,9,16,8,26,0.00,6,,11
2013-2-16,55,42,28,30,25,22,79,54,28,30.45,30.34,30.22,10,10,10,9,5,,0.00,0,,313
2013-2-17,70,54,39,45,33,29,70,47,23,30.20,30.09,29.96,10,10,10,22,12,32,0.00,0,,185
2013-2-18,80,67,52,58,46,34,75,56,20,30.11,29.91,29.78,10,10,9,29,17,37,0.00,5,,219
2013-2-19,63,52,41,33,27,18,68,42,18,30.32,30.22,30.15,10,10,10,13,7,16,0.00,1,,57
2013-2-20,54,50,46,40,35,30,79,57,41,30.17,30.01,29.78,10,10,7,17,11,22,0.07,8,Rain,94
2013-2-21,70,60,51,55,43,27,100,68,20,29.91,29.73,29.66,10,7,2,20,14,28,0.21,5,Rain-Thunderstorm,203
2013-2-22,51,44,37,38,31,27,81,63,43,30.13,30.06,29.92,10,10,10,15,11,23,0.00,1,,2
2013-2-23,57,44,30,32,29,26,82,56,36,30.08,30.02,29.95,10,10,10,9,6,16,0.00,0,,20
2013-2-24,71,55,39,46,39,32,83,58,31,29.95,29.84,29.65,10,10,9,16,9,23,0.00,1,,125
2013-2-25,63,52,42,55,39,27,87,61,30,29.70,29.60,29.52,10,10,6,32,16,44,0.02,7,Rain,237
2013-2-26,59,50,39,33,31,30,77,56,35,29.92,29.84,29.73,10,10,10,26,18,39,0.00,4,,289
2013-2-27,59,48,37,36,28,19,89,51,21,30.22,30.08,29.90,10,10,7,21,10,29,0.00,0,,344
2013-2-28,59,46,33,29,26,24,75,49,26,30.32,30.25,30.18,10,10,8,17,9,24,0.00,0,,325